sensor_id;sensor_type;location;lat;lon;timestamp;P1;durP1;ratioP1;P2;durP2;ratioP2
16286;SDS011;8251;53.568;10.018;2022-07-17T00:00:39;11.77;;;5.23;;
16286;SDS011;8251;53.568;10.018;2022-07-17T00:03:07;8.90;;;4.43;;
16286;SDS011;8251;53.568;10.018;2022-07-17T00:05:35;5.10;;;4.17;;
16286;SDS011;8251;53.568;10.018;2022-07-17T00:08:02;11.40;;;4.33;;
16286;SDS011;8251;53.568;10.018;2022-07-17T00:10:29;10.27;;;5.37;;
16286;SDS011;8251;53.568;10.018;2022-07-17T00:12:56;9.00;;;5.97;;
16286;SDS011;8251;53.568;10.018;2022-07-17T00:15:25;8.90;;;4.70;;
16286;SDS011;8251;53.568;10.018;2022-07-17T00:17:52;9.70;;;5.07;;
16286;SDS011;8251;53.568;10.018;2022-07-17T00:20:19;7.67;;;5.40;;
16286;SDS011;8251;53.568;10.018;2022-07-17T00:22:46;8.77;;;5.77;;
16286;SDS011;8251;53.568;10.018;2022-07-17T00:25:13;12.27;;;5.37;;
16286;SDS011;8251;53.568;10.018;2022-07-17T00:27:41;9.30;;;6.57;;
16286;SDS011;8251;53.568;10.018;2022-07-17T00:30:08;9.23;;;5.60;;
16286;SDS011;8251;53.568;10.018;2022-07-17T00:32:39;6.97;;;5.93;;
16286;SDS011;8251;53.568;10.018;2022-07-17T00:35:06;15.20;;;6.13;;
16286;SDS011;8251;53.568;10.018;2022-07-17T00:37:37;7.20;;;5.07;;
16286;SDS011;8251;53.568;10.018;2022-07-17T00:40:05;18.80;;;5.53;;
16286;SDS011;8251;53.568;10.018;2022-07-17T00:42:33;6.43;;;5.73;;
16286;SDS011;8251;53.568;10.018;2022-07-17T00:45:00;9.90;;;6.30;;
16286;SDS011;8251;53.568;10.018;2022-07-17T00:47:27;7.13;;;5.63;;
16286;SDS011;8251;53.568;10.018;2022-07-17T00:49:55;5.40;;;4.90;;
16286;SDS011;8251;53.568;10.018;2022-07-17T00:52:22;11.03;;;5.30;;
16286;SDS011;8251;53.568;10.018;2022-07-17T00:54:50;12.97;;;5.20;;
16286;SDS011;8251;53.568;10.018;2022-07-17T00:57:18;8.83;;;5.53;;
16286;SDS011;8251;53.568;10.018;2022-07-17T00:59:46;10.67;;;5.90;;
16286;SDS011;8251;53.568;10.018;2022-07-17T01:02:15;12.77;;;5.53;;
16286;SDS011;8251;53.568;10.018;2022-07-17T01:04:48;6.03;;;5.37;;
16286;SDS011;8251;53.568;10.018;2022-07-17T01:07:21;6.87;;;4.90;;
16286;SDS011;8251;53.568;10.018;2022-07-17T01:09:48;11.67;;;5.70;;
16286;SDS011;8251;53.568;10.018;2022-07-17T01:12:15;8.50;;;5.17;;
16286;SDS011;8251;53.568;10.018;2022-07-17T01:14:42;9.00;;;5.13;;
16286;SDS011;8251;53.568;10.018;2022-07-17T01:17:12;10.03;;;5.67;;
16286;SDS011;8251;53.568;10.018;2022-07-17T01:19:39;6.20;;;4.87;;
16286;SDS011;8251;53.568;10.018;2022-07-17T01:22:07;6.20;;;4.30;;
16286;SDS011;8251;53.568;10.018;2022-07-17T01:24:38;8.27;;;4.80;;
16286;SDS011;8251;53.568;10.018;2022-07-17T01:27:05;7.47;;;5.17;;
16286;SDS011;8251;53.568;10.018;2022-07-17T01:29:35;9.13;;;5.33;;
16286;SDS011;8251;53.568;10.018;2022-07-17T01:32:02;5.50;;;4.93;;
16286;SDS011;8251;53.568;10.018;2022-07-17T01:34:29;5.67;;;5.17;;
16286;SDS011;8251;53.568;10.018;2022-07-17T01:36:56;5.93;;;5.03;;
16286;SDS011;8251;53.568;10.018;2022-07-17T01:39:25;10.43;;;5.10;;
16286;SDS011;8251;53.568;10.018;2022-07-17T01:42:06;8.67;;;5.17;;
16286;SDS011;8251;53.568;10.018;2022-07-17T01:44:33;7.57;;;1.80;;
16286;SDS011;8251;53.568;10.018;2022-07-17T01:47:00;7.10;;;1.47;;
16286;SDS011;8251;53.568;10.018;2022-07-17T01:49:27;9.03;;;5.50;;
16286;SDS011;8251;53.568;10.018;2022-07-17T01:51:54;4.80;;;1.70;;
16286;SDS011;8251;53.568;10.018;2022-07-17T01:54:26;10.27;;;1.70;;
16286;SDS011;8251;53.568;10.018;2022-07-17T01:56:53;9.17;;;1.60;;
16286;SDS011;8251;53.568;10.018;2022-07-17T01:59:20;7.10;;;1.90;;
16286;SDS011;8251;53.568;10.018;2022-07-17T02:01:47;9.23;;;5.10;;
16286;SDS011;8251;53.568;10.018;2022-07-17T02:04:14;9.63;;;5.27;;
16286;SDS011;8251;53.568;10.018;2022-07-17T02:06:41;10.33;;;5.43;;
16286;SDS011;8251;53.568;10.018;2022-07-17T02:09:08;11.00;;;5.93;;
16286;SDS011;8251;53.568;10.018;2022-07-17T02:11:36;9.73;;;5.60;;
16286;SDS011;8251;53.568;10.018;2022-07-17T02:14:03;8.20;;;5.80;;
16286;SDS011;8251;53.568;10.018;2022-07-17T02:16:30;8.70;;;4.93;;
16286;SDS011;8251;53.568;10.018;2022-07-17T02:18:57;8.17;;;5.50;;
16286;SDS011;8251;53.568;10.018;2022-07-17T02:21:24;7.40;;;5.00;;
16286;SDS011;8251;53.568;10.018;2022-07-17T02:23:51;8.43;;;5.13;;
16286;SDS011;8251;53.568;10.018;2022-07-17T02:26:18;12.13;;;5.03;;
16286;SDS011;8251;53.568;10.018;2022-07-17T02:28:47;11.73;;;5.23;;
16286;SDS011;8251;53.568;10.018;2022-07-17T02:31:14;7.87;;;4.73;;
16286;SDS011;8251;53.568;10.018;2022-07-17T02:33:41;9.77;;;5.20;;
16286;SDS011;8251;53.568;10.018;2022-07-17T02:36:08;9.67;;;5.13;;
16286;SDS011;8251;53.568;10.018;2022-07-17T02:38:35;6.53;;;5.30;;
16286;SDS011;8251;53.568;10.018;2022-07-17T02:41:02;6.20;;;4.57;;
16286;SDS011;8251;53.568;10.018;2022-07-17T02:43:31;11.60;;;4.97;;
16286;SDS011;8251;53.568;10.018;2022-07-17T02:46:00;9.73;;;5.00;;
16286;SDS011;8251;53.568;10.018;2022-07-17T02:48:28;6.93;;;5.10;;
16286;SDS011;8251;53.568;10.018;2022-07-17T02:50:55;5.67;;;4.40;;
16286;SDS011;8251;53.568;10.018;2022-07-17T02:53:22;8.90;;;4.73;;
16286;SDS011;8251;53.568;10.018;2022-07-17T02:55:49;6.60;;;4.13;;
16286;SDS011;8251;53.568;10.018;2022-07-17T02:58:16;5.67;;;4.40;;
16286;SDS011;8251;53.568;10.018;2022-07-17T03:00:43;7.47;;;4.30;;
16286;SDS011;8251;53.568;10.018;2022-07-17T03:03:12;5.87;;;4.50;;
16286;SDS011;8251;53.568;10.018;2022-07-17T03:05:41;10.00;;;4.43;;
16286;SDS011;8251;53.568;10.018;2022-07-17T03:08:08;6.63;;;4.43;;
16286;SDS011;8251;53.568;10.018;2022-07-17T03:10:35;9.27;;;4.47;;
16286;SDS011;8251;53.568;10.018;2022-07-17T03:13:01;7.27;;;4.30;;
16286;SDS011;8251;53.568;10.018;2022-07-17T03:15:28;8.90;;;4.60;;
16286;SDS011;8251;53.568;10.018;2022-07-17T03:17:55;8.67;;;4.70;;
16286;SDS011;8251;53.568;10.018;2022-07-17T03:20:26;8.90;;;5.00;;
16286;SDS011;8251;53.568;10.018;2022-07-17T03:22:53;7.43;;;4.50;;
16286;SDS011;8251;53.568;10.018;2022-07-17T03:25:20;5.60;;;4.70;;
16286;SDS011;8251;53.568;10.018;2022-07-17T03:27:47;4.67;;;4.23;;
16286;SDS011;8251;53.568;10.018;2022-07-17T03:30:14;7.43;;;4.17;;
16286;SDS011;8251;53.568;10.018;2022-07-17T03:32:41;5.70;;;4.83;;
16286;SDS011;8251;53.568;10.018;2022-07-17T03:35:24;9.77;;;4.17;;
16286;SDS011;8251;53.568;10.018;2022-07-17T03:37:51;12.10;;;4.83;;
16286;SDS011;8251;53.568;10.018;2022-07-17T03:40:18;5.77;;;4.97;;
16286;SDS011;8251;53.568;10.018;2022-07-17T03:42:46;5.37;;;4.30;;
16286;SDS011;8251;53.568;10.018;2022-07-17T03:45:13;5.20;;;4.70;;
16286;SDS011;8251;53.568;10.018;2022-07-17T03:47:40;4.37;;;3.97;;
16286;SDS011;8251;53.568;10.018;2022-07-17T03:50:07;6.93;;;4.70;;
16286;SDS011;8251;53.568;10.018;2022-07-17T03:52:36;13.73;;;4.90;;
16286;SDS011;8251;53.568;10.018;2022-07-17T03:55:04;4.90;;;3.77;;
16286;SDS011;8251;53.568;10.018;2022-07-17T03:57:31;3.83;;;3.17;;
16286;SDS011;8251;53.568;10.018;2022-07-17T03:59:58;11.33;;;3.93;;
16286;SDS011;8251;53.568;10.018;2022-07-17T04:02:26;4.47;;;4.03;;
16286;SDS011;8251;53.568;10.018;2022-07-17T04:04:52;10.30;;;3.67;;
16286;SDS011;8251;53.568;10.018;2022-07-17T04:07:19;7.43;;;4.07;;
16286;SDS011;8251;53.568;10.018;2022-07-17T04:09:57;6.73;;;4.20;;
16286;SDS011;8251;53.568;10.018;2022-07-17T04:12:26;8.87;;;4.63;;
16286;SDS011;8251;53.568;10.018;2022-07-17T04:14:53;3.97;;;3.60;;
16286;SDS011;8251;53.568;10.018;2022-07-17T04:17:21;10.53;;;3.97;;
16286;SDS011;8251;53.568;10.018;2022-07-17T04:19:48;9.43;;;4.20;;
16286;SDS011;8251;53.568;10.018;2022-07-17T04:22:15;6.20;;;3.70;;
16286;SDS011;8251;53.568;10.018;2022-07-17T04:24:44;6.60;;;3.90;;
16286;SDS011;8251;53.568;10.018;2022-07-17T04:27:16;9.97;;;4.47;;
16286;SDS011;8251;53.568;10.018;2022-07-17T04:29:43;5.57;;;3.93;;
16286;SDS011;8251;53.568;10.018;2022-07-17T04:32:10;7.00;;;4.00;;
16286;SDS011;8251;53.568;10.018;2022-07-17T04:34:37;6.27;;;3.83;;
16286;SDS011;8251;53.568;10.018;2022-07-17T04:37:07;8.10;;;3.57;;
16286;SDS011;8251;53.568;10.018;2022-07-17T04:39:35;10.20;;;4.10;;
16286;SDS011;8251;53.568;10.018;2022-07-17T04:42:02;4.57;;;4.10;;
16286;SDS011;8251;53.568;10.018;2022-07-17T04:44:31;6.60;;;4.27;;
16286;SDS011;8251;53.568;10.018;2022-07-17T04:46:58;5.57;;;2.97;;
16286;SDS011;8251;53.568;10.018;2022-07-17T04:49:25;8.67;;;4.20;;
16286;SDS011;8251;53.568;10.018;2022-07-17T04:51:52;7.50;;;4.13;;
16286;SDS011;8251;53.568;10.018;2022-07-17T04:54:19;8.50;;;5.57;;
16286;SDS011;8251;53.568;10.018;2022-07-17T04:56:46;4.40;;;3.43;;
16286;SDS011;8251;53.568;10.018;2022-07-17T04:59:13;7.40;;;3.50;;
16286;SDS011;8251;53.568;10.018;2022-07-17T05:01:42;9.20;;;3.63;;
16286;SDS011;8251;53.568;10.018;2022-07-17T05:04:11;7.73;;;3.67;;
16286;SDS011;8251;53.568;10.018;2022-07-17T05:06:38;8.23;;;3.23;;
16286;SDS011;8251;53.568;10.018;2022-07-17T05:09:05;6.03;;;2.70;;
16286;SDS011;8251;53.568;10.018;2022-07-17T05:11:35;4.83;;;3.33;;
16286;SDS011;8251;53.568;10.018;2022-07-17T05:14:03;6.03;;;3.53;;
16286;SDS011;8251;53.568;10.018;2022-07-17T05:16:30;3.33;;;3.03;;
16286;SDS011;8251;53.568;10.018;2022-07-17T05:18:58;5.20;;;3.57;;
16286;SDS011;8251;53.568;10.018;2022-07-17T05:21:26;7.67;;;2.97;;
16286;SDS011;8251;53.568;10.018;2022-07-17T05:23:53;6.90;;;4.20;;
16286;SDS011;8251;53.568;10.018;2022-07-17T05:26:20;3.47;;;3.27;;
16286;SDS011;8251;53.568;10.018;2022-07-17T05:28:47;9.43;;;3.50;;
16286;SDS011;8251;53.568;10.018;2022-07-17T05:31:14;3.60;;;3.17;;
16286;SDS011;8251;53.568;10.018;2022-07-17T05:33:42;4.97;;;3.03;;
16286;SDS011;8251;53.568;10.018;2022-07-17T05:36:14;6.87;;;4.00;;
16286;SDS011;8251;53.568;10.018;2022-07-17T05:38:47;4.50;;;3.40;;
16286;SDS011;8251;53.568;10.018;2022-07-17T05:41:18;7.73;;;3.67;;
16286;SDS011;8251;53.568;10.018;2022-07-17T05:43:45;4.47;;;3.40;;
16286;SDS011;8251;53.568;10.018;2022-07-17T05:46:12;5.37;;;3.20;;
16286;SDS011;8251;53.568;10.018;2022-07-17T05:48:39;8.27;;;3.77;;
16286;SDS011;8251;53.568;10.018;2022-07-17T05:51:06;4.43;;;3.37;;
16286;SDS011;8251;53.568;10.018;2022-07-17T05:53:34;4.10;;;3.43;;
16286;SDS011;8251;53.568;10.018;2022-07-17T05:56:01;6.30;;;3.67;;
16286;SDS011;8251;53.568;10.018;2022-07-17T05:58:31;8.57;;;3.87;;
16286;SDS011;8251;53.568;10.018;2022-07-17T06:00:58;8.27;;;3.67;;
16286;SDS011;8251;53.568;10.018;2022-07-17T06:03:25;7.93;;;5.00;;
16286;SDS011;8251;53.568;10.018;2022-07-17T06:05:54;6.10;;;3.87;;
16286;SDS011;8251;53.568;10.018;2022-07-17T06:08:21;6.63;;;3.77;;
16286;SDS011;8251;53.568;10.018;2022-07-17T06:10:49;4.13;;;3.50;;
16286;SDS011;8251;53.568;10.018;2022-07-17T06:13:16;5.00;;;3.63;;
16286;SDS011;8251;53.568;10.018;2022-07-17T06:15:43;3.57;;;3.27;;
16286;SDS011;8251;53.568;10.018;2022-07-17T06:18:11;5.03;;;3.40;;
16286;SDS011;8251;53.568;10.018;2022-07-17T06:20:38;5.27;;;3.47;;
16286;SDS011;8251;53.568;10.018;2022-07-17T06:23:05;3.87;;;3.47;;
16286;SDS011;8251;53.568;10.018;2022-07-17T06:25:32;6.67;;;4.07;;
16286;SDS011;8251;53.568;10.018;2022-07-17T06:28:00;5.87;;;3.17;;
16286;SDS011;8251;53.568;10.018;2022-07-17T06:30:27;4.87;;;3.60;;
16286;SDS011;8251;53.568;10.018;2022-07-17T06:32:54;4.33;;;3.57;;
16286;SDS011;8251;53.568;10.018;2022-07-17T06:35:21;6.03;;;3.83;;
16286;SDS011;8251;53.568;10.018;2022-07-17T06:37:49;5.90;;;3.37;;
16286;SDS011;8251;53.568;10.018;2022-07-17T06:40:16;5.70;;;3.60;;
16286;SDS011;8251;53.568;10.018;2022-07-17T06:42:43;5.47;;;3.00;;
16286;SDS011;8251;53.568;10.018;2022-07-17T06:45:13;7.73;;;3.90;;
16286;SDS011;8251;53.568;10.018;2022-07-17T06:47:40;3.60;;;3.30;;
16286;SDS011;8251;53.568;10.018;2022-07-17T06:50:08;6.27;;;3.90;;
16286;SDS011;8251;53.568;10.018;2022-07-17T06:52:35;5.23;;;3.40;;
16286;SDS011;8251;53.568;10.018;2022-07-17T06:55:02;8.03;;;3.30;;
16286;SDS011;8251;53.568;10.018;2022-07-17T06:57:30;7.37;;;3.30;;
16286;SDS011;8251;53.568;10.018;2022-07-17T06:59:57;6.23;;;3.50;;
16286;SDS011;8251;53.568;10.018;2022-07-17T07:02:25;4.07;;;3.00;;
16286;SDS011;8251;53.568;10.018;2022-07-17T07:04:52;6.70;;;3.63;;
16286;SDS011;8251;53.568;10.018;2022-07-17T07:07:19;5.43;;;3.00;;
16286;SDS011;8251;53.568;10.018;2022-07-17T07:09:46;6.50;;;3.37;;
16286;SDS011;8251;53.568;10.018;2022-07-17T07:12:13;5.83;;;3.53;;
16286;SDS011;8251;53.568;10.018;2022-07-17T07:14:40;6.50;;;3.90;;
16286;SDS011;8251;53.568;10.018;2022-07-17T07:17:06;5.53;;;4.10;;
16286;SDS011;8251;53.568;10.018;2022-07-17T07:19:35;7.83;;;3.27;;
16286;SDS011;8251;53.568;10.018;2022-07-17T07:22:02;11.23;;;3.60;;
16286;SDS011;8251;53.568;10.018;2022-07-17T07:24:29;6.43;;;3.57;;
16286;SDS011;8251;53.568;10.018;2022-07-17T07:26:55;8.43;;;3.90;;
16286;SDS011;8251;53.568;10.018;2022-07-17T07:29:23;3.97;;;3.67;;
16286;SDS011;8251;53.568;10.018;2022-07-17T07:31:50;3.83;;;3.50;;
16286;SDS011;8251;53.568;10.018;2022-07-17T07:34:17;6.10;;;2.83;;
16286;SDS011;8251;53.568;10.018;2022-07-17T07:36:46;5.20;;;3.83;;
16286;SDS011;8251;53.568;10.018;2022-07-17T07:39:12;7.00;;;3.53;;
16286;SDS011;8251;53.568;10.018;2022-07-17T07:41:39;9.93;;;3.73;;
16286;SDS011;8251;53.568;10.018;2022-07-17T07:44:07;6.07;;;3.50;;
16286;SDS011;8251;53.568;10.018;2022-07-17T07:46:34;5.60;;;3.73;;
16286;SDS011;8251;53.568;10.018;2022-07-17T07:49:01;5.70;;;3.37;;
16286;SDS011;8251;53.568;10.018;2022-07-17T07:51:30;4.70;;;3.70;;
16286;SDS011;8251;53.568;10.018;2022-07-17T07:53:59;8.53;;;3.97;;
16286;SDS011;8251;53.568;10.018;2022-07-17T07:56:26;14.70;;;4.40;;
16286;SDS011;8251;53.568;10.018;2022-07-17T07:58:54;7.97;;;3.93;;
16286;SDS011;8251;53.568;10.018;2022-07-17T08:01:24;4.10;;;3.50;;
16286;SDS011;8251;53.568;10.018;2022-07-17T08:03:51;3.67;;;3.37;;
16286;SDS011;8251;53.568;10.018;2022-07-17T08:06:18;7.80;;;4.27;;
16286;SDS011;8251;53.568;10.018;2022-07-17T08:08:45;6.37;;;3.60;;
16286;SDS011;8251;53.568;10.018;2022-07-17T08:11:13;3.73;;;3.30;;
16286;SDS011;8251;53.568;10.018;2022-07-17T08:13:41;4.87;;;3.03;;
16286;SDS011;8251;53.568;10.018;2022-07-17T08:16:08;4.47;;;3.40;;
16286;SDS011;8251;53.568;10.018;2022-07-17T08:18:36;4.40;;;3.40;;
16286;SDS011;8251;53.568;10.018;2022-07-17T08:21:05;3.60;;;3.30;;
16286;SDS011;8251;53.568;10.018;2022-07-17T08:23:32;3.17;;;2.90;;
16286;SDS011;8251;53.568;10.018;2022-07-17T08:25:59;7.13;;;3.60;;
16286;SDS011;8251;53.568;10.018;2022-07-17T08:28:27;6.60;;;3.17;;
16286;SDS011;8251;53.568;10.018;2022-07-17T08:30:54;6.53;;;3.20;;
16286;SDS011;8251;53.568;10.018;2022-07-17T08:33:21;3.73;;;3.03;;
16286;SDS011;8251;53.568;10.018;2022-07-17T08:35:48;3.90;;;3.60;;
16286;SDS011;8251;53.568;10.018;2022-07-17T08:38:15;6.43;;;3.30;;
16286;SDS011;8251;53.568;10.018;2022-07-17T08:40:42;4.70;;;3.10;;
16286;SDS011;8251;53.568;10.018;2022-07-17T08:43:13;5.63;;;3.75;;
16286;SDS011;8251;53.568;10.018;2022-07-17T08:45:41;4.65;;;3.28;;
16286;SDS011;8251;53.568;10.018;2022-07-17T08:48:11;7.85;;;3.78;;
16286;SDS011;8251;53.568;10.018;2022-07-17T08:50:40;7.10;;;2.88;;
16286;SDS011;8251;53.568;10.018;2022-07-17T08:53:08;7.57;;;3.70;;
16286;SDS011;8251;53.568;10.018;2022-07-17T08:55:36;6.35;;;3.72;;
16286;SDS011;8251;53.568;10.018;2022-07-17T08:58:03;7.47;;;3.72;;
16286;SDS011;8251;53.568;10.018;2022-07-17T09:00:30;4.32;;;3.50;;
16286;SDS011;8251;53.568;10.018;2022-07-17T09:02:59;4.53;;;3.63;;
16286;SDS011;8251;53.568;10.018;2022-07-17T09:05:29;9.35;;;3.90;;
16286;SDS011;8251;53.568;10.018;2022-07-17T09:07:57;7.30;;;3.92;;
16286;SDS011;8251;53.568;10.018;2022-07-17T09:10:35;8.30;;;3.85;;
16286;SDS011;8251;53.568;10.018;2022-07-17T09:19:53;7.53;;;3.38;;
16286;SDS011;8251;53.568;10.018;2022-07-17T09:22:21;7.15;;;3.55;;
16286;SDS011;8251;53.568;10.018;2022-07-17T09:24:50;4.70;;;3.80;;
16286;SDS011;8251;53.568;10.018;2022-07-17T09:27:28;2.33;;;1.00;;
16286;SDS011;8251;53.568;10.018;2022-07-17T09:29:59;7.38;;;4.65;;
16286;SDS011;8251;53.568;10.018;2022-07-17T09:32:33;6.97;;;2.10;;
16286;SDS011;8251;53.568;10.018;2022-07-17T09:35:04;6.35;;;3.92;;
16286;SDS011;8251;53.568;10.018;2022-07-17T09:37:32;6.43;;;3.92;;
16286;SDS011;8251;53.568;10.018;2022-07-17T09:40:00;4.93;;;3.50;;
16286;SDS011;8251;53.568;10.018;2022-07-17T09:42:34;3.83;;;1.70;;
16286;SDS011;8251;53.568;10.018;2022-07-17T09:45:03;5.90;;;1.27;;
16286;SDS011;8251;53.568;10.018;2022-07-17T09:47:32;2.58;;;2.38;;
16286;SDS011;8251;53.568;10.018;2022-07-17T09:50:01;6.88;;;2.85;;
16286;SDS011;8251;53.568;10.018;2022-07-17T09:52:32;5.88;;;3.00;;
16286;SDS011;8251;53.568;10.018;2022-07-17T09:55:01;5.80;;;1.35;;
16286;SDS011;8251;53.568;10.018;2022-07-17T09:57:30;7.53;;;1.00;;
16286;SDS011;8251;53.568;10.018;2022-07-17T09:59:59;3.10;;;1.08;;
16286;SDS011;8251;53.568;10.018;2022-07-17T10:02:29;2.88;;;1.23;;
16286;SDS011;8251;53.568;10.018;2022-07-17T10:04:57;2.03;;;1.25;;
16286;SDS011;8251;53.568;10.018;2022-07-17T10:07:29;3.25;;;1.67;;
16286;SDS011;8251;53.568;10.018;2022-07-17T10:09:57;4.85;;;3.03;;
16286;SDS011;8251;53.568;10.018;2022-07-17T10:12:25;4.10;;;2.83;;
16286;SDS011;8251;53.568;10.018;2022-07-17T10:14:53;3.55;;;1.08;;
16286;SDS011;8251;53.568;10.018;2022-07-17T10:17:20;1.73;;;1.20;;
16286;SDS011;8251;53.568;10.018;2022-07-17T10:19:49;2.97;;;2.58;;
16286;SDS011;8251;53.568;10.018;2022-07-17T10:22:21;2.85;;;2.38;;
16286;SDS011;8251;53.568;10.018;2022-07-17T10:24:51;3.72;;;1.25;;
16286;SDS011;8251;53.568;10.018;2022-07-17T10:27:23;4.35;;;0.93;;
16286;SDS011;8251;53.568;10.018;2022-07-17T10:30:01;3.30;;;1.23;;
16286;SDS011;8251;53.568;10.018;2022-07-17T10:32:30;3.33;;;1.33;;
16286;SDS011;8251;53.568;10.018;2022-07-17T10:34:58;4.45;;;1.33;;
16286;SDS011;8251;53.568;10.018;2022-07-17T10:37:27;3.05;;;2.33;;
16286;SDS011;8251;53.568;10.018;2022-07-17T10:40:01;4.20;;;2.30;;
16286;SDS011;8251;53.568;10.018;2022-07-17T10:42:41;3.38;;;1.20;;
16286;SDS011;8251;53.568;10.018;2022-07-17T10:45:26;2.58;;;1.40;;
16286;SDS011;8251;53.568;10.018;2022-07-17T10:47:59;1.17;;;1.08;;
16286;SDS011;8251;53.568;10.018;2022-07-17T10:50:29;4.72;;;1.75;;
16286;SDS011;8251;53.568;10.018;2022-07-17T10:53:04;1.88;;;0.95;;
16286;SDS011;8251;53.568;10.018;2022-07-17T10:55:38;2.50;;;2.30;;
16286;SDS011;8251;53.568;10.018;2022-07-17T10:58:17;1.77;;;1.65;;
16286;SDS011;8251;53.568;10.018;2022-07-17T11:00:56;5.03;;;2.13;;
16286;SDS011;8251;53.568;10.018;2022-07-17T11:03:27;1.52;;;1.10;;
16286;SDS011;8251;53.568;10.018;2022-07-17T11:05:55;5.50;;;1.40;;
16286;SDS011;8251;53.568;10.018;2022-07-17T11:08:34;3.65;;;1.10;;
16286;SDS011;8251;53.568;10.018;2022-07-17T11:11:06;2.67;;;1.33;;
16286;SDS011;8251;53.568;10.018;2022-07-17T11:13:33;3.55;;;1.38;;
16286;SDS011;8251;53.568;10.018;2022-07-17T11:16:00;2.47;;;1.38;;
16286;SDS011;8251;53.568;10.018;2022-07-17T11:18:27;2.30;;;1.52;;
16286;SDS011;8251;53.568;10.018;2022-07-17T11:20:56;1.50;;;1.27;;
16286;SDS011;8251;53.568;10.018;2022-07-17T11:23:26;1.60;;;1.05;;
16286;SDS011;8251;53.568;10.018;2022-07-17T11:25:55;4.50;;;1.55;;
16286;SDS011;8251;53.568;10.018;2022-07-17T11:28:33;2.70;;;1.38;;
16286;SDS011;8251;53.568;10.018;2022-07-17T11:31:15;3.33;;;1.20;;
16286;SDS011;8251;53.568;10.018;2022-07-17T11:33:51;1.83;;;1.40;;
16286;SDS011;8251;53.568;10.018;2022-07-17T11:36:23;7.82;;;1.83;;
16286;SDS011;8251;53.568;10.018;2022-07-17T11:38:53;3.88;;;1.17;;
16286;SDS011;8251;53.568;10.018;2022-07-17T11:41:21;3.00;;;0.98;;
16286;SDS011;8251;53.568;10.018;2022-07-17T11:43:59;3.45;;;1.08;;
16286;SDS011;8251;53.568;10.018;2022-07-17T11:46:27;4.85;;;1.48;;
16286;SDS011;8251;53.568;10.018;2022-07-17T11:48:56;3.15;;;1.20;;
16286;SDS011;8251;53.568;10.018;2022-07-17T11:51:35;3.42;;;1.20;;
16286;SDS011;8251;53.568;10.018;2022-07-17T11:54:03;2.17;;;0.85;;
16286;SDS011;8251;53.568;10.018;2022-07-17T11:56:31;4.10;;;1.08;;
16286;SDS011;8251;53.568;10.018;2022-07-17T11:59:00;4.90;;;1.40;;
16286;SDS011;8251;53.568;10.018;2022-07-17T12:01:28;3.20;;;1.23;;
16286;SDS011;8251;53.568;10.018;2022-07-17T12:04:04;3.60;;;1.17;;
16286;SDS011;8251;53.568;10.018;2022-07-17T12:06:33;3.28;;;1.00;;
16286;SDS011;8251;53.568;10.018;2022-07-17T12:09:00;3.22;;;1.20;;
16286;SDS011;8251;53.568;10.018;2022-07-17T12:11:27;4.53;;;1.10;;
16286;SDS011;8251;53.568;10.018;2022-07-17T12:13:54;2.00;;;1.58;;
16286;SDS011;8251;53.568;10.018;2022-07-17T12:16:32;4.82;;;1.70;;
16286;SDS011;8251;53.568;10.018;2022-07-17T12:19:05;6.15;;;1.63;;
16286;SDS011;8251;53.568;10.018;2022-07-17T12:21:47;2.50;;;1.10;;
16286;SDS011;8251;53.568;10.018;2022-07-17T12:24:19;1.48;;;1.23;;
16286;SDS011;8251;53.568;10.018;2022-07-17T12:26:47;1.90;;;1.10;;
16286;SDS011;8251;53.568;10.018;2022-07-17T12:29:16;5.78;;;1.25;;
16286;SDS011;8251;53.568;10.018;2022-07-17T12:31:44;0.75;;;0.75;;
16286;SDS011;8251;53.568;10.018;2022-07-17T12:34:12;3.65;;;1.13;;
16286;SDS011;8251;53.568;10.018;2022-07-17T12:36:39;1.65;;;1.10;;
16286;SDS011;8251;53.568;10.018;2022-07-17T12:39:06;2.15;;;1.02;;
16286;SDS011;8251;53.568;10.018;2022-07-17T12:41:33;7.45;;;1.95;;
16286;SDS011;8251;53.568;10.018;2022-07-17T12:44:00;4.93;;;1.20;;
16286;SDS011;8251;53.568;10.018;2022-07-17T12:46:28;3.63;;;1.73;;
16286;SDS011;8251;53.568;10.018;2022-07-17T12:48:55;2.35;;;1.20;;
16286;SDS011;8251;53.568;10.018;2022-07-17T12:51:22;1.95;;;1.10;;
16286;SDS011;8251;53.568;10.018;2022-07-17T12:53:50;4.55;;;1.10;;
16286;SDS011;8251;53.568;10.018;2022-07-17T12:56:17;1.20;;;1.10;;
16286;SDS011;8251;53.568;10.018;2022-07-17T12:58:44;1.38;;;1.25;;
16286;SDS011;8251;53.568;10.018;2022-07-17T13:01:11;1.98;;;1.60;;
16286;SDS011;8251;53.568;10.018;2022-07-17T13:03:39;6.93;;;1.73;;
16286;SDS011;8251;53.568;10.018;2022-07-17T13:06:06;3.78;;;1.60;;
16286;SDS011;8251;53.568;10.018;2022-07-17T13:08:33;3.38;;;1.20;;
16286;SDS011;8251;53.568;10.018;2022-07-17T13:11:01;1.48;;;1.38;;
16286;SDS011;8251;53.568;10.018;2022-07-17T13:13:29;2.08;;;1.00;;
16286;SDS011;8251;53.568;10.018;2022-07-17T13:15:57;1.83;;;1.35;;
16286;SDS011;8251;53.568;10.018;2022-07-17T13:18:24;3.30;;;1.92;;
16286;SDS011;8251;53.568;10.018;2022-07-17T13:20:53;2.60;;;1.65;;
16286;SDS011;8251;53.568;10.018;2022-07-17T13:23:21;3.67;;;2.20;;
16286;SDS011;8251;53.568;10.018;2022-07-17T13:25:48;1.02;;;1.02;;
16286;SDS011;8251;53.568;10.018;2022-07-17T13:28:15;5.13;;;1.50;;
16286;SDS011;8251;53.568;10.018;2022-07-17T13:30:42;2.30;;;1.67;;
16286;SDS011;8251;53.568;10.018;2022-07-17T13:33:09;4.95;;;1.77;;
16286;SDS011;8251;53.568;10.018;2022-07-17T13:35:36;5.43;;;2.47;;
16286;SDS011;8251;53.568;10.018;2022-07-17T13:38:04;4.72;;;2.17;;
16286;SDS011;8251;53.568;10.018;2022-07-17T13:40:32;3.92;;;2.05;;
16286;SDS011;8251;53.568;10.018;2022-07-17T13:43:00;4.63;;;2.40;;
16286;SDS011;8251;53.568;10.018;2022-07-17T13:45:27;2.72;;;2.33;;
16286;SDS011;8251;53.568;10.018;2022-07-17T13:47:54;4.13;;;2.45;;
16286;SDS011;8251;53.568;10.018;2022-07-17T13:50:22;3.92;;;2.20;;
16286;SDS011;8251;53.568;10.018;2022-07-17T13:52:50;3.15;;;2.85;;
16286;SDS011;8251;53.568;10.018;2022-07-17T13:55:19;2.92;;;2.72;;
16286;SDS011;8251;53.568;10.018;2022-07-17T13:57:46;1.65;;;0.93;;
16286;SDS011;8251;53.568;10.018;2022-07-17T14:00:13;2.45;;;1.90;;
16286;SDS011;8251;53.568;10.018;2022-07-17T14:02:42;6.53;;;3.22;;
16286;SDS011;8251;53.568;10.018;2022-07-17T14:05:09;6.45;;;3.42;;
16286;SDS011;8251;53.568;10.018;2022-07-17T14:07:36;5.63;;;2.97;;
16286;SDS011;8251;53.568;10.018;2022-07-17T14:10:04;4.10;;;3.05;;
16286;SDS011;8251;53.568;10.018;2022-07-17T14:12:33;3.47;;;2.90;;
16286;SDS011;8251;53.568;10.018;2022-07-17T14:15:00;5.10;;;4.32;;
16286;SDS011;8251;53.568;10.018;2022-07-17T14:17:27;5.85;;;3.95;;
16286;SDS011;8251;53.568;10.018;2022-07-17T14:19:55;3.10;;;2.83;;
16286;SDS011;8251;53.568;10.018;2022-07-17T14:22:22;2.55;;;1.90;;
16286;SDS011;8251;53.568;10.018;2022-07-17T14:24:51;2.65;;;1.40;;
16286;SDS011;8251;53.568;10.018;2022-07-17T14:27:18;4.18;;;2.92;;
16286;SDS011;8251;53.568;10.018;2022-07-17T14:29:48;4.43;;;3.38;;
16286;SDS011;8251;53.568;10.018;2022-07-17T14:32:15;4.55;;;2.35;;
16286;SDS011;8251;53.568;10.018;2022-07-17T14:34:42;2.30;;;2.08;;
16286;SDS011;8251;53.568;10.018;2022-07-17T14:37:09;4.75;;;3.00;;
16286;SDS011;8251;53.568;10.018;2022-07-17T14:39:42;3.08;;;2.88;;
16286;SDS011;8251;53.568;10.018;2022-07-17T14:42:10;5.05;;;1.83;;
16286;SDS011;8251;53.568;10.018;2022-07-17T14:44:37;3.40;;;1.20;;
16286;SDS011;8251;53.568;10.018;2022-07-17T14:47:06;3.05;;;2.72;;
16286;SDS011;8251;53.568;10.018;2022-07-17T14:49:33;4.28;;;3.28;;
16286;SDS011;8251;53.568;10.018;2022-07-17T14:52:00;4.07;;;2.85;;
16286;SDS011;8251;53.568;10.018;2022-07-17T14:54:27;2.58;;;2.35;;
16286;SDS011;8251;53.568;10.018;2022-07-17T14:56:55;3.22;;;3.00;;
16286;SDS011;8251;53.568;10.018;2022-07-17T14:59:23;3.55;;;3.25;;